createdAt,value
2023-01-30T00:01:56.528Z,-1.42
2023-01-30T00:04:24.677Z,-1.43
2023-01-30T00:06:52.797Z,-1.49
2023-01-30T00:09:20.940Z,-1.62
2023-01-30T00:11:49.063Z,-1.67
2023-01-30T00:14:17.408Z,-1.74
2023-01-30T00:16:46.973Z,-1.73
2023-01-30T00:19:15.110Z,-1.74
2023-01-30T00:21:43.235Z,-1.67
2023-01-30T00:24:11.475Z,-1.71
2023-01-30T00:26:39.730Z,-1.68
2023-01-30T00:29:10.039Z,-1.72
2023-01-30T00:31:38.164Z,-1.89
2023-01-30T00:34:08.043Z,-2.03
2023-01-30T00:36:36.183Z,-2.01
2023-01-30T00:39:04.377Z,-2.00
2023-01-30T00:41:47.921Z,-2.01
2023-01-30T00:44:33.120Z,-2.15
2023-01-30T00:47:08.883Z,-2.20
2023-01-30T00:49:38.866Z,-2.21
2023-01-30T00:52:07.366Z,-2.32
2023-01-30T00:54:35.693Z,-2.38
2023-01-30T00:57:03.811Z,-2.37
2023-01-30T00:59:32.751Z,-2.32
2023-01-30T01:02:00.899Z,-2.32
2023-01-30T01:04:29.198Z,-2.35
2023-01-30T01:06:58.676Z,-2.34
2023-01-30T01:09:26.898Z,-2.45
2023-01-30T01:11:54.970Z,-2.52
2023-01-30T01:14:23.103Z,-2.55
2023-01-30T01:16:51.418Z,-2.51
2023-01-30T01:19:19.707Z,-2.50
2023-01-30T01:21:47.838Z,-2.50
2023-01-30T01:24:18.080Z,-2.53
2023-01-30T01:26:47.215Z,-2.63
2023-01-30T01:29:16.882Z,-2.67
2023-01-30T01:31:45.859Z,-2.68
2023-01-30T01:34:14.047Z,-2.71
2023-01-30T01:36:54.255Z,-2.73
2023-01-30T01:39:24.784Z,-2.75
2023-01-30T01:41:52.208Z,-2.75
2023-01-30T01:44:20.329Z,-2.72
2023-01-30T01:46:52.308Z,-2.78
2023-01-30T01:49:25.732Z,-2.93
2023-01-30T01:51:58.788Z,-3.01
2023-01-30T01:54:35.395Z,-3.11
2023-01-30T01:57:06.480Z,-3.04
2023-01-30T01:59:39.148Z,-3.00
2023-01-30T02:02:14.335Z,-2.93
2023-01-30T02:05:06.591Z,-3.04
2023-01-30T02:07:41.706Z,-3.04
2023-01-30T02:10:15.438Z,-3.08
2023-01-30T02:12:45.000Z,-3.09
2023-01-30T02:15:13.314Z,-3.08
2023-01-30T02:17:41.461Z,-3.01
2023-01-30T02:20:22.791Z,-3.02
2023-01-30T02:23:11.472Z,-3.06
2023-01-30T02:26:25.304Z,-3.06
2023-01-30T02:29:13.724Z,-3.07
2023-01-30T02:31:52.127Z,-3.06
2023-01-30T02:34:37.671Z,-3.16
2023-01-30T02:37:16.059Z,-3.29
2023-01-30T02:39:59.805Z,-3.39
2023-01-30T02:42:35.788Z,-3.36
2023-01-30T02:45:13.404Z,-3.39
2023-01-30T02:47:48.491Z,-3.34
2023-01-30T02:50:22.292Z,-3.33
2023-01-30T02:52:50.909Z,-3.28
2023-01-30T02:55:21.124Z,-3.40
2023-01-30T02:57:49.752Z,-3.42
2023-01-30T03:00:21.618Z,-3.53
2023-01-30T03:03:11.034Z,-3.52
2023-01-30T03:06:11.941Z,-3.47
2023-01-30T03:08:50.605Z,-3.47
2023-01-30T03:11:24.415Z,-3.44
2023-01-30T03:14:00.139Z,-3.43
2023-01-30T03:16:34.421Z,-3.44
2023-01-30T03:19:06.297Z,-3.43
2023-01-30T03:21:34.695Z,-3.53
2023-01-30T03:24:02.983Z,-3.46
2023-01-30T03:26:34.104Z,-3.49
2023-01-30T03:29:03.560Z,-3.49
2023-01-30T03:31:32.335Z,-3.65
2023-01-30T03:34:07.737Z,-3.70
2023-01-30T03:36:36.222Z,-3.66
2023-01-30T03:39:07.880Z,-3.68
2023-01-30T03:41:36.464Z,-3.67
2023-01-30T03:44:04.685Z,-3.62
2023-01-30T03:46:33.874Z,-3.82
2023-01-30T03:49:02.046Z,-3.74
2023-01-30T03:51:31.558Z,-3.74
2023-01-30T03:53:59.823Z,-3.76
2023-01-30T03:56:28.145Z,-3.77
2023-01-30T03:58:56.291Z,-3.77
2023-01-30T04:01:33.574Z,-3.75
2023-01-30T04:04:01.644Z,-3.74
2023-01-30T04:06:31.444Z,-3.94
2023-01-30T04:08:59.875Z,-3.82
2023-01-30T04:11:38.237Z,-3.84
2023-01-30T04:14:06.340Z,-3.86
2023-01-30T04:16:40.418Z,-3.88
2023-01-30T04:19:27.280Z,-3.94
2023-01-30T04:21:57.408Z,-4.01
2023-01-30T04:24:25.597Z,-3.97
2023-01-30T04:26:53.717Z,-4.15
2023-01-30T04:29:21.836Z,-4.03
2023-01-30T04:31:52.110Z,-3.93
2023-01-30T04:34:23.606Z,-3.91
2023-01-30T04:36:51.916Z,-3.90
2023-01-30T04:39:22.215Z,-3.87
2023-01-30T04:41:50.489Z,-3.92
2023-01-30T04:44:18.719Z,-3.98
2023-01-30T04:46:59.483Z,-4.11
2023-01-30T04:49:28.077Z,-4.10
2023-01-30T04:51:56.839Z,-4.18
2023-01-30T04:54:26.333Z,-4.15
2023-01-30T04:56:54.462Z,-4.23
2023-01-30T04:59:22.628Z,-4.21
2023-01-30T05:01:51.638Z,-4.17
2023-01-30T05:04:19.822Z,-4.19
2023-01-30T05:06:48.041Z,-4.18
2023-01-30T05:09:16.444Z,-4.18
2023-01-30T05:11:45.990Z,-4.17
2023-01-30T05:14:14.117Z,-4.12
2023-01-30T05:16:42.247Z,-4.15
2023-01-30T05:19:12.112Z,-4.23
2023-01-30T05:21:40.260Z,-4.17
2023-01-30T05:24:08.880Z,-4.30
2023-01-30T05:26:37.099Z,-4.28
2023-01-30T05:29:06.658Z,-4.24
2023-01-30T05:31:35.789Z,-4.16
2023-01-30T05:34:03.931Z,-4.17
2023-01-30T05:36:32.038Z,-4.13
2023-01-30T05:39:00.151Z,-4.17
2023-01-30T05:41:28.442Z,-4.19
2023-01-30T05:43:56.538Z,-4.23
2023-01-30T05:46:26.082Z,-4.21
2023-01-30T05:48:54.179Z,-4.32
2023-01-30T05:51:25.078Z,-4.51
2023-01-30T05:53:53.621Z,-4.49
2023-01-30T05:56:22.324Z,-4.44
2023-01-30T05:58:55.132Z,-4.46
2023-01-30T06:01:25.970Z,-4.39
2023-01-30T06:03:54.962Z,-4.41
2023-01-30T06:06:24.536Z,-4.37
2023-01-30T06:08:54.767Z,-4.42
2023-01-30T06:11:23.803Z,-4.32
2023-01-30T06:13:52.005Z,-4.17
2023-01-30T06:16:20.683Z,-4.09
2023-01-30T06:18:50.305Z,-4.07
2023-01-30T06:21:18.510Z,-4.17
2023-01-30T06:23:46.605Z,-4.26
2023-01-30T06:26:14.900Z,-4.24
2023-01-30T06:28:43.214Z,-4.26
2023-01-30T06:31:11.655Z,-4.23
2023-01-30T06:33:39.840Z,-4.20
2023-01-30T06:36:10.185Z,-4.00
2023-01-30T06:38:38.302Z,-3.91
2023-01-30T06:41:07.085Z,-3.79
2023-01-30T06:43:35.131Z,-3.76
2023-01-30T06:46:03.436Z,-3.66
2023-01-30T06:48:31.838Z,-3.59
2023-01-30T06:51:00.086Z,-3.57
2023-01-30T06:53:31.367Z,-3.34
2023-01-30T06:56:03.331Z,-3.28
2023-01-30T06:58:31.573Z,-3.21
2023-01-30T07:00:59.723Z,-3.10
2023-01-30T07:03:27.899Z,-2.96
2023-01-30T07:05:55.984Z,-2.91
2023-01-30T07:08:24.415Z,-2.81
2023-01-30T07:10:54.019Z,-2.69
2023-01-30T07:13:22.151Z,-2.61
2023-01-30T07:15:50.663Z,-2.61
2023-01-30T07:18:19.087Z,-2.58
2023-01-30T07:20:48.640Z,-2.50
2023-01-30T07:23:18.012Z,-2.55
2023-01-30T07:25:46.281Z,-2.58
2023-01-30T07:28:15.755Z,-2.59
2023-01-30T07:30:44.046Z,-2.49
2023-01-30T07:33:12.184Z,-2.49
2023-01-30T07:35:40.345Z,-2.47
2023-01-30T07:38:08.500Z,-2.32
2023-01-30T07:40:36.664Z,-2.32
2023-01-30T07:43:07.020Z,-2.23
2023-01-30T07:45:40.684Z,-2.23
2023-01-30T07:48:10.016Z,-2.14
2023-01-30T07:50:38.649Z,-2.03
2023-01-30T07:53:07.863Z,-2.06
2023-01-30T07:55:36.589Z,-1.91
2023-01-30T07:58:05.221Z,-1.90
2023-01-30T08:00:34.252Z,-1.65
2023-01-30T08:03:03.803Z,-1.68
2023-01-30T08:05:31.937Z,-1.70
2023-01-30T08:08:00.970Z,-1.71
2023-01-30T08:10:29.083Z,-1.66
2023-01-30T08:12:57.211Z,-1.53
2023-01-30T08:15:25.395Z,-1.56
2023-01-30T08:17:57.720Z,-1.58
2023-01-30T08:20:32.196Z,-1.47
2023-01-30T08:23:02.070Z,-1.42
2023-01-30T08:25:30.743Z,-1.37
2023-01-30T08:27:59.985Z,-1.17
2023-01-30T08:30:30.499Z,-1.21
2023-01-30T08:32:59.334Z,-1.08
2023-01-30T08:35:28.838Z,-0.83
2023-01-30T08:37:57.021Z,-0.89
2023-01-30T08:40:25.126Z,-0.92
2023-01-30T08:42:53.255Z,-0.64
2023-01-30T08:45:21.367Z,-0.55
2023-01-30T08:47:49.778Z,-0.30
2023-01-30T08:50:18.363Z,-0.16
2023-01-30T08:52:48.157Z,0.26
2023-01-30T08:55:16.320Z,0.92
2023-01-30T08:57:44.518Z,1.20
2023-01-30T09:00:13.852Z,1.82
2023-01-30T09:02:41.992Z,1.76
2023-01-30T09:05:11.180Z,2.12
2023-01-30T09:07:39.377Z,2.21
2023-01-30T09:10:10.325Z,2.17
2023-01-30T09:12:38.571Z,2.02
2023-01-30T09:15:08.230Z,2.11
2023-01-30T09:17:36.632Z,1.88
2023-01-30T09:20:05.594Z,2.21
2023-01-30T09:22:33.709Z,2.64
2023-01-30T09:25:01.857Z,2.81
2023-01-30T09:27:31.441Z,2.90
2023-01-30T09:29:59.582Z,2.80
2023-01-30T09:32:27.873Z,2.83
2023-01-30T09:34:56.066Z,2.84
2023-01-30T09:37:24.237Z,2.75
2023-01-30T09:39:52.339Z,2.68
2023-01-30T09:42:57.729Z,2.63
2023-01-30T09:45:38.935Z,2.63
2023-01-30T09:48:18.250Z,2.68
2023-01-30T09:51:10.653Z,2.61
2023-01-30T09:53:51.584Z,3.14
2023-01-30T09:56:19.723Z,3.04
2023-01-30T09:58:53.265Z,3.60
2023-01-30T10:01:30.370Z,3.52
2023-01-30T10:04:10.488Z,3.56
2023-01-30T10:06:47.822Z,3.22
2023-01-30T10:09:24.033Z,3.28
2023-01-30T10:12:07.357Z,3.38
2023-01-30T10:14:56.913Z,3.58
2023-01-30T10:17:34.281Z,3.42
2023-01-30T10:20:22.754Z,3.27
2023-01-30T10:23:02.298Z,3.48
2023-01-30T10:25:35.604Z,3.80
2023-01-30T10:28:12.408Z,4.00
2023-01-30T10:30:42.637Z,3.96
2023-01-30T10:33:21.126Z,3.93
2023-01-30T10:36:00.986Z,4.43
2023-01-30T10:38:35.490Z,4.34
2023-01-30T10:41:11.639Z,4.43
2023-01-30T10:43:44.185Z,4.82
2023-01-30T10:46:32.041Z,5.01
2023-01-30T10:49:04.273Z,5.37
2023-01-30T10:51:45.428Z,5.68
2023-01-30T10:54:19.717Z,5.80
2023-01-30T10:56:55.886Z,5.50
2023-01-30T10:59:29.705Z,5.18
2023-01-30T11:02:13.785Z,5.77
2023-01-30T11:04:50.053Z,6.48
2023-01-30T11:07:18.273Z,6.75
2023-01-30T11:09:48.572Z,7.52
2023-01-30T11:12:16.976Z,7.68
2023-01-30T11:14:56.522Z,7.86
2023-01-30T11:17:34.460Z,7.87
2023-01-30T11:20:17.037Z,8.18
2023-01-30T11:22:51.192Z,8.37
2023-01-30T11:25:22.165Z,8.56
2023-01-30T11:27:55.371Z,8.37
2023-01-30T11:30:28.829Z,8.63
2023-01-30T11:33:12.448Z,8.98
2023-01-30T11:35:45.875Z,9.06
2023-01-30T11:38:23.475Z,9.09
2023-01-30T11:40:51.798Z,9.26
2023-01-30T11:43:20.579Z,8.91
2023-01-30T11:45:51.211Z,8.91
2023-01-30T11:49:02.420Z,8.97
2023-01-30T11:51:13.374Z,9.00
2023-01-30T11:53:46.005Z,9.07
2023-01-30T11:56:21.326Z,9.49
2023-01-30T11:58:59.244Z,9.75
2023-01-30T12:01:29.635Z,9.66
2023-01-30T12:04:00.583Z,9.78
2023-01-30T12:06:31.908Z,10.05
2023-01-30T12:09:00.236Z,10.05
2023-01-30T12:11:44.922Z,9.64
2023-01-30T12:14:39.897Z,9.48
2023-01-30T12:17:18.997Z,9.48
2023-01-30T12:19:59.740Z,9.39
2023-01-30T12:22:33.297Z,9.99
2023-01-30T12:25:03.117Z,9.84
2023-01-30T12:27:50.050Z,9.64
2023-01-30T12:30:26.355Z,9.82
2023-01-30T12:32:59.655Z,9.99
2023-01-30T12:35:43.145Z,9.95
2023-01-30T12:38:23.211Z,9.94
2023-01-30T12:41:03.248Z,10.01
2023-01-30T12:43:46.726Z,9.66
2023-01-30T12:46:36.723Z,9.46
2023-01-30T12:49:20.888Z,10.12
2023-01-30T12:52:14.990Z,10.33
2023-01-30T12:54:50.219Z,10.09
2023-01-30T12:57:28.279Z,9.90
2023-01-30T13:00:06.690Z,10.28
2023-01-30T13:02:49.919Z,10.77
2023-01-30T13:05:26.738Z,10.70
2023-01-30T13:08:10.977Z,10.12
2023-01-30T13:10:45.569Z,10.30
2023-01-30T13:13:22.074Z,10.37
2023-01-30T13:15:57.698Z,10.16
2023-01-30T13:18:33.122Z,9.71
2023-01-30T13:21:08.453Z,9.94
2023-01-30T13:23:50.452Z,9.79
2023-01-30T13:26:22.428Z,10.02
2023-01-30T13:28:54.387Z,10.08
2023-01-30T13:31:26.166Z,10.08
2023-01-30T13:34:04.737Z,10.01
2023-01-30T13:36:41.787Z,9.82
2023-01-30T13:41:51.354Z,10.37
2023-01-30T13:44:23.721Z,10.66
2023-01-30T13:46:55.840Z,10.54
2023-01-30T13:49:31.861Z,10.29
2023-01-30T13:52:05.530Z,10.59
2023-01-30T13:54:53.643Z,10.02
2023-01-30T13:57:33.942Z,9.82
2023-01-30T14:00:25.251Z,9.30
2023-01-30T14:03:31.533Z,9.15
2023-01-30T14:06:14.490Z,9.06
2023-01-30T14:08:52.149Z,9.03
2023-01-30T14:11:34.606Z,9.26
2023-01-30T14:14:06.350Z,9.02
2023-01-30T14:16:50.019Z,9.28
2023-01-30T14:19:30.706Z,9.31
2023-01-30T14:22:01.301Z,9.50
2023-01-30T14:24:31.523Z,9.26
2023-01-30T14:27:27.526Z,8.86
2023-01-30T14:29:57.384Z,9.19
2023-01-30T14:32:55.010Z,8.93
2023-01-30T14:35:30.953Z,8.35
2023-01-30T14:38:14.864Z,8.27
2023-01-30T14:40:58.748Z,7.77
2023-01-30T14:43:54.028Z,7.46
2023-01-30T14:46:54.747Z,7.17
2023-01-30T14:49:30.991Z,7.41
2023-01-30T14:51:59.975Z,7.42
2023-01-30T14:54:42.204Z,7.57
2023-01-30T14:57:21.371Z,7.23
2023-01-30T15:00:13.447Z,7.14
2023-01-30T15:02:44.799Z,7.00
2023-01-30T15:05:16.859Z,7.07
2023-01-30T15:07:48.464Z,6.82
2023-01-30T15:10:33.827Z,6.46
2023-01-30T15:13:32.617Z,6.55
2023-01-30T15:16:16.285Z,5.83
2023-01-30T15:19:05.018Z,5.37
2023-01-30T15:21:55.042Z,5.07
2023-01-30T15:25:01.640Z,4.91
2023-01-30T15:27:38.719Z,4.71
2023-01-30T15:30:28.750Z,4.48
2023-01-30T15:33:26.112Z,6.04
2023-01-30T15:35:54.585Z,6.48
2023-01-30T15:38:28.647Z,6.48
2023-01-30T15:40:59.396Z,6.91
2023-01-30T15:43:54.663Z,7.19
2023-01-30T15:46:34.059Z,7.18
2023-01-30T15:49:38.633Z,6.93
2023-01-30T15:52:13.485Z,6.90
2023-01-30T15:54:42.686Z,6.14
2023-01-30T15:57:19.242Z,5.36
2023-01-30T15:59:49.144Z,4.75
2023-01-30T16:02:24.910Z,4.10
2023-01-30T16:05:08.163Z,3.93
2023-01-30T16:07:36.570Z,3.59
2023-01-30T16:10:07.576Z,3.54
2023-01-30T16:12:41.168Z,3.58
2023-01-30T16:15:19.615Z,3.37
2023-01-30T16:17:58.763Z,3.29
2023-01-30T16:20:29.087Z,3.30
2023-01-30T16:22:57.997Z,3.26
2023-01-30T16:25:30.067Z,3.23
2023-01-30T16:27:58.815Z,3.28
2023-01-30T16:30:30.837Z,3.20
2023-01-30T16:32:59.118Z,3.16
2023-01-30T16:35:34.341Z,3.17
2023-01-30T16:38:05.707Z,3.15
2023-01-30T16:40:45.857Z,3.08
2023-01-30T16:43:22.023Z,3.03
2023-01-30T16:46:33.145Z,3.10
2023-01-30T16:49:05.749Z,3.00
2023-01-30T16:51:35.561Z,2.89
2023-01-30T16:54:06.327Z,2.91
2023-01-30T16:56:35.864Z,2.99
2023-01-30T16:59:05.855Z,2.97
2023-01-30T17:01:40.272Z,2.83
2023-01-30T17:04:18.946Z,2.66
2023-01-30T17:06:54.730Z,2.67
2023-01-30T17:09:39.093Z,2.54
2023-01-30T17:12:38.657Z,2.50
2023-01-30T17:15:35.806Z,2.10
2023-01-30T17:18:04.275Z,2.05
2023-01-30T17:20:39.413Z,2.04
2023-01-30T17:23:11.655Z,1.83
2023-01-30T17:25:45.193Z,1.81
2023-01-30T17:28:21.402Z,1.76
2023-01-30T17:30:51.034Z,1.68
2023-01-30T17:33:19.745Z,1.64
2023-01-30T17:35:48.509Z,1.54
2023-01-30T17:38:18.766Z,1.45
2023-01-30T17:40:48.024Z,1.38
2023-01-30T17:43:17.162Z,1.47
2023-01-30T17:45:45.934Z,1.85
2023-01-30T17:48:15.057Z,1.88
2023-01-30T17:50:44.130Z,1.89
2023-01-30T17:53:13.306Z,1.78
2023-01-30T17:55:44.131Z,1.84
2023-01-30T17:58:18.958Z,1.95
2023-01-30T18:00:48.301Z,2.14
2023-01-30T18:03:17.484Z,2.23
2023-01-30T18:05:47.926Z,2.28
2023-01-30T18:08:16.879Z,2.40
2023-01-30T18:10:49.150Z,2.48
2023-01-30T18:13:18.758Z,2.34
2023-01-30T18:15:48.655Z,2.21
2023-01-30T18:18:19.483Z,2.07
2023-01-30T18:20:49.047Z,1.91
2023-01-30T18:23:20.205Z,1.94
2023-01-30T18:25:53.737Z,2.15
2023-01-30T18:28:24.949Z,2.16
2023-01-30T18:30:55.034Z,2.31
2023-01-30T18:33:25.047Z,2.30
2023-01-30T18:35:54.503Z,2.37
2023-01-30T18:38:24.105Z,2.63
2023-01-30T18:40:55.140Z,2.92
2023-01-30T18:43:30.558Z,2.96
2023-01-30T18:46:09.137Z,3.06
2023-01-30T18:48:39.762Z,3.04
2023-01-30T18:51:12.027Z,3.14
2023-01-30T18:53:42.705Z,3.18
2023-01-30T18:56:19.244Z,3.24
2023-01-30T18:58:50.150Z,3.26
2023-01-30T19:01:21.191Z,3.32
2023-01-30T19:03:51.512Z,3.25
2023-01-30T19:06:22.973Z,3.20
2023-01-30T19:08:53.110Z,3.12
2023-01-30T19:11:42.158Z,3.11
2023-01-30T19:14:12.473Z,3.07
2023-01-30T19:16:42.508Z,3.13
2023-01-30T19:19:12.435Z,3.10
2023-01-30T19:21:41.822Z,3.05
2023-01-30T19:24:16.011Z,3.14
2023-01-30T19:26:47.640Z,3.40
2023-01-30T19:29:17.608Z,3.58
2023-01-30T19:31:47.493Z,3.68
2023-01-30T19:34:17.752Z,3.92
2023-01-30T19:36:47.695Z,4.08
2023-01-30T19:39:17.737Z,4.15
2023-01-30T19:41:49.014Z,4.09
2023-01-30T19:44:19.531Z,4.04
2023-01-30T19:46:49.539Z,3.95
2023-01-30T19:49:21.328Z,3.96
2023-01-30T19:51:51.630Z,4.04
2023-01-30T19:54:21.814Z,4.23
2023-01-30T19:56:54.200Z,4.12
2023-01-30T19:59:24.620Z,4.11
2023-01-30T20:01:56.262Z,4.02
2023-01-30T20:04:25.872Z,3.88
2023-01-30T20:06:56.025Z,3.92
2023-01-30T20:09:28.238Z,3.93
2023-01-30T20:11:58.821Z,3.95
2023-01-30T20:14:28.010Z,3.99
2023-01-30T20:16:59.519Z,4.07
2023-01-30T20:19:31.065Z,4.06
2023-01-30T20:22:02.984Z,4.06
2023-01-30T20:24:33.866Z,4.11
2023-01-30T20:27:06.572Z,4.05
2023-01-30T20:29:39.282Z,3.93
2023-01-30T20:32:09.286Z,3.90
2023-01-30T20:34:38.729Z,3.90
2023-01-30T20:37:10.119Z,4.01
2023-01-30T20:39:39.771Z,3.89
2023-01-30T20:42:09.783Z,3.79
2023-01-30T20:44:38.919Z,3.69
2023-01-30T20:47:14.998Z,3.60
2023-01-30T20:49:45.020Z,3.59
2023-01-30T20:52:14.631Z,3.49
2023-01-30T20:54:43.961Z,3.31
2023-01-30T20:57:16.030Z,3.31
2023-01-30T20:59:47.504Z,3.18
2023-01-30T21:02:16.751Z,3.16
2023-01-30T21:04:46.097Z,3.32
2023-01-30T21:07:15.049Z,3.23
2023-01-30T21:09:45.414Z,3.16
2023-01-30T21:12:16.163Z,2.99
2023-01-30T21:14:44.761Z,3.00
2023-01-30T21:17:13.188Z,3.05
2023-01-30T21:19:43.485Z,3.01
2023-01-30T21:22:12.319Z,2.93
2023-01-30T21:24:41.163Z,3.02
2023-01-30T21:27:09.808Z,2.99
2023-01-30T21:29:40.415Z,3.01
2023-01-30T21:32:08.768Z,3.11
2023-01-30T21:34:37.935Z,3.12
2023-01-30T21:37:23.795Z,3.09
2023-01-30T21:40:09.322Z,3.09
2023-01-30T21:42:54.949Z,3.13
2023-01-30T21:45:24.633Z,3.03
2023-01-30T21:47:54.200Z,3.05
2023-01-30T21:50:22.736Z,3.10
2023-01-30T21:52:50.986Z,3.13
2023-01-30T21:55:19.323Z,3.21
2023-01-30T21:57:47.635Z,3.13
2023-01-30T22:00:16.250Z,3.20
2023-01-30T22:02:45.996Z,3.16
2023-01-30T22:05:14.096Z,3.04
2023-01-30T22:07:42.239Z,3.14
2023-01-30T22:10:11.627Z,3.09
2023-01-30T22:12:41.540Z,3.10
2023-01-30T22:15:10.356Z,3.05
2023-01-30T22:17:38.653Z,3.11
2023-01-30T22:20:10.165Z,3.09
2023-01-30T22:22:38.677Z,3.12
2023-01-30T22:25:07.722Z,3.11
2023-01-30T22:27:36.180Z,2.99
2023-01-30T22:30:04.448Z,2.91
2023-01-30T22:32:32.544Z,2.79
2023-01-30T22:35:00.675Z,2.86
2023-01-30T22:37:30.204Z,2.91
2023-01-30T22:39:58.286Z,3.00
2023-01-30T22:42:26.420Z,2.99
2023-01-30T22:44:57.642Z,3.01
2023-01-30T22:47:39.503Z,3.00
2023-01-30T22:50:13.034Z,2.93
2023-01-30T22:52:42.545Z,2.83
2023-01-30T22:55:11.096Z,2.83
2023-01-30T22:57:39.349Z,2.83
2023-01-30T23:00:09.071Z,2.73
2023-01-30T23:02:37.229Z,2.71
2023-01-30T23:05:05.939Z,2.79
2023-01-30T23:07:34.023Z,2.70
2023-01-30T23:10:03.485Z,2.77
2023-01-30T23:12:48.774Z,2.70
2023-01-30T23:15:17.382Z,2.68
2023-01-30T23:18:02.870Z,2.76
2023-01-30T23:20:31.773Z,2.61
2023-01-30T23:22:59.817Z,2.68
2023-01-30T23:25:29.327Z,2.68
2023-01-30T23:27:57.409Z,2.67
2023-01-30T23:30:25.502Z,2.61
2023-01-30T23:32:53.551Z,2.56
2023-01-30T23:35:22.196Z,2.64
2023-01-30T23:38:16.232Z,2.66
2023-01-30T23:40:46.595Z,2.74
2023-01-30T23:43:14.760Z,2.78
2023-01-30T23:45:43.354Z,2.71
2023-01-30T23:48:11.700Z,2.67
2023-01-30T23:50:42.244Z,2.64
2023-01-30T23:53:11.045Z,2.62
2023-01-30T23:55:39.075Z,2.65
2023-01-30T23:58:08.522Z,2.71
